Time;durP1;ratioP1;P1;durP2;ratioP2;P2;SDS_P1;SDS_P2;PMS_P1;PMS_P2;Temp;Humidity;BMP_temperature;BMP_pressure;BME280_temperature;BME280_humidity;BME280_pressure;Samples;Min_cycle;Max_cycle;Signal;HPM_P1;HPM_P2
2023/10/28 00:00:26;;;;;;;12.25;6.65;;;;;;;7.55;100.00;99300.69;4966698;28;20055;-79
2023/10/28 00:02:51;;;;;;;10.25;6.80;;;;;;;7.58;100.00;99305.63;4963796;28;20035;-79
2023/10/28 00:05:16;;;;;;;11.02;6.65;;;;;;;7.67;100.00;99306.19;4964894;28;20034;-79
2023/10/28 00:07:42;;;;;;;;;;;;;;;7.71;100.00;99310.91;4968519;28;20109;-79
2023/10/28 00:10:09;;;;;;;13.35;6.75;;;;;;;7.72;100.00;99311.69;4960200;28;19918;-79
2023/10/28 00:12:34;;;;;;;14.82;7.10;;;;;;;7.76;100.00;99304.88;4969642;28;20054;-79
2023/10/28 00:15:00;;;;;;;13.68;7.00;;;;;;;7.78;100.00;99299.28;4970022;28;20464;-78
2023/10/28 00:17:25;;;;;;;;;;;;;;;7.79;100.00;99311.66;4962472;28;20039;-79
2023/10/28 00:19:53;;;;;;;12.13;7.07;;;;;;;7.82;100.00;99308.53;4963560;28;19949;-79
2023/10/28 00:22:19;;;;;;;10.70;6.95;;;;;;;7.90;100.00;99308.28;4961190;28;20544;-79
2023/10/28 00:24:44;;;;;;;14.27;6.97;;;;;;;7.96;100.00;99310.09;4959378;28;20127;-79
2023/10/28 00:27:10;;;;;;;11.88;6.45;;;;;;;8.07;100.00;99307.75;4960291;28;20031;-79
2023/10/28 00:29:36;;;;;;;9.13;6.30;;;;;;;8.11;100.00;99317.00;4966111;28;20035;-79
2023/10/28 00:32:01;;;;;;;9.82;6.30;;;;;;;8.06;100.00;99309.59;4965493;28;20050;-78
2023/10/28 00:34:28;;;;;;;;;;;;;;;8.04;100.00;99307.16;4965660;28;20038;-79
2023/10/28 00:36:54;;;;;;;10.82;6.40;;;;;;;8.08;100.00;99314.75;4969003;28;20282;-78
2023/10/28 00:39:19;;;;;;;13.75;6.60;;;;;;;8.09;100.00;99305.69;4980266;28;20023;-79
2023/10/28 00:41:47;;;;;;;;;;;;;;;8.08;100.00;99310.19;4981817;28;20031;-79
2023/10/28 00:44:16;;;;;;;10.68;5.88;;;;;;;8.11;100.00;99314.31;5652693;23;20072;-79
2023/10/28 00:46:44;;;;;;;15.93;6.43;;;;;;;8.16;100.00;99309.09;4963227;28;20122;-79
2023/10/28 00:49:09;;;;;;;13.15;5.95;;;;;;;8.14;100.00;99317.38;4939668;29;20106;-82
2023/10/28 00:51:35;;;;;;;9.40;6.25;;;;;;;8.07;100.00;99319.28;4942883;28;20032;-80
2023/10/28 00:54:00;;;;;;;12.60;5.95;;;;;;;8.15;100.00;99310.13;4932750;28;20534;-81
2023/10/28 00:56:25;;;;;;;13.43;6.15;;;;;;;8.15;100.00;99310.13;4957316;28;20495;-80
2023/10/28 00:58:52;;;;;;;10.20;5.35;;;;;;;8.20;100.00;99304.94;4938831;29;20019;-80
2023/10/28 01:01:18;;;;;;;11.27;6.10;;;;;;;8.14;100.00;99298.63;4951453;28;20043;-80
2023/10/28 01:03:44;;;;;;;9.80;5.55;;;;;;;8.15;100.00;99307.47;4946111;28;20147;-80
2023/10/28 01:06:09;;;;;;;9.85;5.55;;;;;;;8.18;100.00;99304.34;4947032;28;20026;-80
2023/10/28 01:08:35;;;;;;;8.40;5.40;;;;;;;8.21;100.00;99298.56;4949449;28;20032;-79
2023/10/28 01:11:06;;;;;;;7.13;5.05;;;;;;;8.27;100.00;99299.53;4956353;29;20479;-79
2023/10/28 01:13:32;;;;;;;11.77;5.45;;;;;;;8.25;100.00;99301.59;4941607;28;20031;-79
2023/10/28 01:15:59;;;;;;;9.73;4.97;;;;;;;8.26;100.00;99304.09;4954154;29;20039;-79
2023/10/28 01:18:25;;;;;;;9.65;5.13;;;;;;;8.28;100.00;99304.69;4954726;28;20668;-79
2023/10/28 01:20:50;;;;;;;9.80;5.13;;;;;;;8.24;100.00;99305.31;4951655;28;20039;-79
2023/10/28 01:23:16;;;;;;;10.23;5.18;;;;;;;8.24;100.00;99305.31;4950361;28;20030;-79
2023/10/28 01:25:41;;;;;;;9.13;4.97;;;;;;;8.27;100.00;99300.38;4954598;28;20034;-79
2023/10/28 01:28:08;;;;;;;12.40;5.40;;;;;;;8.29;100.00;99297.44;4946844;28;20027;-79
2023/10/28 01:30:33;;;;;;;9.90;4.68;;;;;;;8.22;100.00;99294.00;4957066;28;20046;-79
2023/10/28 01:32:59;;;;;;;7.82;4.70;;;;;;;8.22;100.00;99297.50;4954748;29;20027;-79
2023/10/28 01:35:24;;;;;;;9.90;5.32;;;;;;;8.16;100.00;99307.25;4942283;28;20023;-79
2023/10/28 01:37:49;;;;;;;;;;;;;;;8.09;100.00;99314.53;4947297;28;20042;-79
2023/10/28 01:40:17;;;;;;;7.90;4.82;;;;;;;8.09;100.00;99297.63;4949674;28;20431;-79
2023/10/28 01:42:44;;;;;;;11.13;5.55;;;;;;;8.02;100.00;99314.59;4937087;29;20476;-79
2023/10/28 01:45:10;;;;;;;8.57;5.00;;;;;;;8.00;100.00;99310.50;4954821;28;20408;-80
2023/10/28 01:47:37;;;;;;;11.43;5.10;;;;;;;8.02;100.00;99311.91;4954022;28;20608;-79
2023/10/28 01:50:04;;;;;;;8.43;4.80;;;;;;;8.10;100.00;99301.97;4951289;29;20023;-79
2023/10/28 01:52:29;;;;;;;8.48;4.90;;;;;;;8.10;100.00;99304.66;4935318;29;20046;-79
2023/10/28 01:54:55;;;;;;;8.88;4.70;;;;;;;8.07;100.00;99300.53;4945115;28;20023;-79
2023/10/28 01:57:24;;;;;;;;;;;;;;;8.05;100.00;99307.94;4954772;29;20031;-79
2023/10/28 01:59:50;;;;;;;6.78;4.43;;;;;;;8.11;100.00;99304.41;4952128;28;20435;-79
2023/10/28 02:02:15;;;;;;;10.02;4.68;;;;;;;8.13;100.00;99309.53;4954567;28;20023;-80
2023/10/28 02:04:41;;;;;;;;;;;;;;;8.16;100.00;99304.59;4948622;28;20024;-80
2023/10/28 02:07:06;;;;;;;11.18;4.55;;;;;;;8.14;100.00;99303.13;4943032;28;20386;-79
2023/10/28 02:09:33;;;;;;;7.90;4.38;;;;;;;8.14;100.00;99303.13;4947594;28;20048;-79
2023/10/28 02:12:02;;;;;;;8.82;4.50;;;;;;;8.14;100.00;99306.66;4948161;28;20027;-79
2023/10/28 02:14:27;;;;;;;7.10;4.50;;;;;;;8.23;100.00;99307.19;4951661;28;20407;-79
2023/10/28 02:16:54;;;;;;;8.07;4.30;;;;;;;8.23;100.00;99296.47;4953447;29;20027;-79
2023/10/28 02:19:20;;;;;;;8.23;4.10;;;;;;;8.30;100.00;99294.53;4952896;28;20034;-79
2023/10/28 02:21:45;;;;;;;7.20;3.88;;;;;;;8.38;100.00;99301.50;4950686;28;20039;-80
2023/10/28 02:24:10;;;;;;;11.32;4.35;;;;;;;8.32;100.00;99297.03;4942417;28;20487;-79
2023/10/28 02:26:36;;;;;;;7.50;3.67;;;;;;;8.37;100.00;99299.03;4952819;29;20044;-79
2023/10/28 02:29:01;;;;;;;6.97;3.65;;;;;;;8.43;100.00;99298.16;4950130;28;20475;-79
2023/10/28 02:31:27;;;;;;;;;;;;;;;8.48;100.00;99307.19;4950100;28;20035;-79
2023/10/28 02:33:53;;;;;;;6.57;3.67;;;;;;;8.53;100.00;99309.22;4935367;28;20022;-79
2023/10/28 02:36:18;;;;;;;9.43;4.20;;;;;;;8.49;100.00;99308.84;4962097;23;20510;-79
2023/10/28 02:38:43;;;;;;;9.13;3.60;;;;;;;8.52;100.00;99306.78;4952453;28;20033;-79
2023/10/28 02:41:09;;;;;;;7.75;3.53;;;;;;;8.54;100.00;99310.84;4952753;28;20415;-80
2023/10/28 02:43:39;;;;;;;9.15;3.90;;;;;;;8.54;100.00;99310.84;4953013;28;20042;-79
2023/10/28 02:46:04;;;;;;;8.60;3.80;;;;;;;8.55;100.00;99315.19;4955426;28;20031;-80
2023/10/28 02:48:33;;;;;;;7.20;3.70;;;;;;;8.57;100.00;99320.31;4960624;28;20582;-79
2023/10/28 02:51:04;;;;;;;7.82;4.13;;;;;;;8.60;100.00;99309.97;4953998;28;20042;-79
2023/10/28 02:53:30;;;;;;;8.00;3.55;;;;;;;8.58;100.00;99305.84;4953777;29;20104;-79
2023/10/28 02:55:55;;;;;;;8.55;3.50;;;;;;;8.61;100.00;99314.31;4954820;28;20039;-80
2023/10/28 02:58:23;;;;;;;6.82;3.42;;;;;;;8.61;100.00;99308.94;4954069;28;20023;-79
2023/10/28 03:00:48;;;;;;;7.35;3.83;;;;;;;8.60;100.00;99309.16;4952807;28;20030;-79
2023/10/28 03:03:14;;;;;;;8.70;3.58;;;;;;;8.58;100.00;99305.84;4952823;28;20023;-79
2023/10/28 03:05:39;;;;;;;6.82;3.47;;;;;;;8.65;100.00;99306.63;4937711;29;20057;-79
2023/10/28 03:08:04;;;;;;;8.45;3.25;;;;;;;8.63;100.00;99308.69;4955082;28;20039;-79
2023/10/28 03:10:30;;;;;;;5.28;3.05;;;;;;;8.58;100.00;99317.44;4955544;28;20391;-78
2023/10/28 03:12:55;;;;;;;6.60;3.28;;;;;;;8.59;100.00;99302.97;4952206;29;20031;-80
2023/10/28 03:15:20;;;;;;;7.03;3.22;;;;;;;8.58;100.00;99309.38;4956875;28;20035;-79
2023/10/28 03:17:49;;;;;;;7.60;3.35;;;;;;;8.61;100.00;99310.78;4955118;28;20372;-79
2023/10/28 03:20:19;;;;;;;5.95;2.95;;;;;;;8.60;100.00;99319.88;4952853;29;20027;-79
2023/10/28 03:22:44;;;;;;;7.20;3.10;;;;;;;8.61;100.00;99317.00;4953944;29;20039;-79
2023/10/28 03:25:09;;;;;;;4.30;2.75;;;;;;;8.62;100.00;99307.91;4957187;28;20027;-79
2023/10/28 03:27:35;;;;;;;6.45;3.10;;;;;;;8.64;100.00;99307.66;4956105;28;20030;-79
2023/10/28 03:30:00;;;;;;;3.65;2.60;;;;;;;8.67;100.00;99314.44;4957070;28;20038;-79
2023/10/28 03:32:26;;;;;;;4.53;2.20;;;;;;;8.63;100.00;99304.19;4956123;28;20651;-79
2023/10/28 03:34:54;;;;;;;5.15;2.40;;;;;;;8.62;100.00;99310.59;4958165;29;20095;-79
2023/10/28 03:37:20;;;;;;;4.28;2.15;;;;;;;8.62;100.00;99315.09;4959208;29;20534;-79
2023/10/28 03:39:45;;;;;;;4.70;2.13;;;;;;;8.59;100.00;99313.69;4963098;28;20031;-79
2023/10/28 03:42:11;;;;;;;4.53;2.00;;;;;;;8.63;100.00;99325.63;4954881;28;20037;-79
2023/10/28 03:44:36;;;;;;;4.20;2.10;;;;;;;8.60;100.00;99315.34;4938294;29;20536;-79
2023/10/28 03:47:04;;;;;;;3.17;2.00;;;;;;;8.63;100.00;99311.38;4959917;28;20361;-80
2023/10/28 03:49:29;;;;;;;4.00;1.75;;;;;;;8.65;100.00;99312.00;4951024;28;20026;-80
2023/10/28 03:51:55;;;;;;;2.63;1.70;;;;;;;8.72;100.00;99311.91;4948720;28;20024;-79
2023/10/28 03:54:20;;;;;;;3.15;1.60;;;;;;;8.74;100.00;99307.97;4951407;28;20019;-79
2023/10/28 03:56:46;;;;;;;3.78;1.50;;;;;;;8.75;100.00;99309.59;4952429;29;20352;-80
2023/10/28 03:59:13;;;;;;;3.00;1.65;;;;;;;8.74;100.00;99309.84;4960855;28;20051;-79
2023/10/28 04:01:40;;;;;;;2.55;1.40;;;;;;;8.77;100.00;99306.72;4963040;28;20035;-79
2023/10/28 04:04:07;;;;;;;2.85;1.45;;;;;;;8.74;100.00;99309.84;4956413;29;20023;-79
2023/10/28 04:06:33;;;;;;;2.55;1.30;;;;;;;8.73;100.00;99309.03;4961855;28;20035;-79
2023/10/28 04:08:59;;;;;;;3.60;1.40;;;;;;;8.68;100.00;99310.72;4954136;29;20027;-79
2023/10/28 04:11:24;;;;;;;1.65;1.40;;;;;;;8.65;100.00;99312.78;4956866;28;20082;-79
2023/10/28 04:13:50;;;;;;;2.90;1.20;;;;;;;8.62;100.00;99318.63;4956779;29;20039;-80
2023/10/28 04:16:15;;;;;;;4.43;1.40;;;;;;;8.59;100.00;99319.06;4953750;28;20035;-79
2023/10/28 04:18:40;;;;;;;5.40;1.50;;;;;;;8.57;100.00;99321.16;4954577;29;20118;-79
2023/10/28 04:21:06;;;;;;;2.58;1.50;;;;;;;8.54;100.00;99321.59;4954361;28;20031;-79
2023/10/28 04:23:31;;;;;;;3.00;1.52;;;;;;;8.48;100.00;99319.78;4954038;29;20546;-79
2023/10/28 04:25:57;;;;;;;1.65;1.30;;;;;;;8.41;100.00;99316.31;4937712;29;20041;-79
2023/10/28 04:28:22;;;;;;;1.70;1.38;;;;;;;8.37;100.00;99321.31;4955464;28;20045;-78
2023/10/28 04:30:55;;;;;;;2.70;1.45;;;;;;;8.38;100.00;99316.75;4953717;28;20023;-79
2023/10/28 04:33:21;;;;;;;2.65;1.48;;;;;;;8.41;100.00;99316.31;4950636;28;20507;-79
2023/10/28 04:35:46;;;;;;;3.03;1.45;;;;;;;8.40;100.00;99310.13;4956122;28;20035;-79
2023/10/28 04:38:12;;;;;;;4.80;1.70;;;;;;;8.42;100.00;99316.09;4955619;28;20033;-79
2023/10/28 04:40:40;;;;;;;3.28;1.40;;;;;;;8.38;100.00;99320.28;4956659;28;20035;-79
2023/10/28 04:43:08;;;;;;;3.53;1.65;;;;;;;8.42;100.00;99323.31;4956785;28;20031;-80
2023/10/28 04:45:33;;;;;;;2.03;1.80;;;;;;;8.44;100.00;99326.63;4962786;28;20035;-79
2023/10/28 04:48:01;;;;;;;2.33;1.80;;;;;;;8.47;100.00;99327.00;4956861;28;20031;-79
2023/10/28 04:50:28;;;;;;;2.95;2.10;;;;;;;8.47;100.00;99326.19;4955687;28;20062;-79
2023/10/28 04:52:54;;;;;;;3.67;2.20;;;;;;;8.42;100.00;99331.38;4954553;28;20042;-79
2023/10/28 04:55:21;;;;;;;4.10;2.40;;;;;;;8.34;100.00;99325.25;4958346;28;20373;-79
2023/10/28 04:57:47;;;;;;;2.92;2.20;;;;;;;8.33;100.00;99326.28;4956908;28;20469;-79
2023/10/28 05:00:15;;;;;;;4.15;2.13;;;;;;;8.34;100.00;99325.25;4956122;28;20468;-79
2023/10/28 05:02:41;;;;;;;5.63;2.50;;;;;;;8.32;100.00;99327.31;4956922;28;20038;-79
2023/10/28 05:05:06;;;;;;;3.92;2.50;;;;;;;8.30;100.00;99318.66;4960416;28;20387;-79
2023/10/28 05:07:32;;;;;;;4.75;2.30;;;;;;;8.33;100.00;99315.56;4973211;28;20019;-79
2023/10/28 05:09:58;;;;;;;5.05;2.60;;;;;;;8.38;100.00;99319.44;4965256;28;20134;-79
2023/10/28 05:12:26;;;;;;;5.45;2.50;;;;;;;8.38;100.00;99316.75;4957118;28;20031;-79
2023/10/28 05:14:54;;;;;;;3.50;2.65;;;;;;;8.31;100.00;99317.63;4955982;29;20110;-79
2023/10/28 05:17:20;;;;;;;4.38;2.70;;;;;;;8.21;100.00;99311.97;4955070;29;20067;-79
2023/10/28 05:19:46;;;;;;;4.70;2.60;;;;;;;8.27;100.00;99318.28;4949073;28;20720;-79
2023/10/28 05:22:11;;;;;;;4.70;2.70;;;;;;;8.25;100.00;99323.06;4950057;28;20110;-78
2023/10/28 05:24:37;;;;;;;4.45;2.55;;;;;;;8.24;100.00;99316.88;4950385;28;20487;-80
2023/10/28 05:27:03;;;;;;;4.55;2.60;;;;;;;8.33;100.00;99317.44;4954590;28;20046;-79
2023/10/28 05:29:29;;;;;;;6.38;2.70;;;;;;;8.28;100.00;99317.25;4947641;28;20038;-80
2023/10/28 05:31:56;;;;;;;5.20;3.17;;;;;;;8.26;100.00;99314.81;4951900;28;20035;-79
2023/10/28 05:34:40;;;;;;;3.08;2.38;;;;;;;8.26;100.00;99322.84;5761490;23;20010;-83
2023/10/28 05:37:07;;;;;;;3.83;2.50;;;;;;;8.32;100.00;99318.47;4958757;28;20045;-84
2023/10/28 05:39:32;;;;;;;3.30;2.50;;;;;;;8.29;100.00;99314.38;4968809;28;20066;-83
2023/10/28 05:42:43;;;;;;;4.70;2.60;;;;;;;8.27;100.00;99321.81;4962796;28;20082;-84
2023/10/28 05:44:43;;;;;;;5.78;2.90;;;;;;;8.20;100.00;99318.34;4944187;28;20460;-83
2023/10/28 05:47:09;;;;;;;3.40;2.50;;;;;;;8.17;100.00;99313.44;4953587;28;20077;-83
2023/10/28 05:49:34;;;;;;;4.90;2.70;;;;;;;8.08;100.00;99306.72;4958773;28;20033;-84
2023/10/28 05:52:00;;;;;;;4.32;2.72;;;;;;;8.04;100.00;99312.50;4959108;28;20019;-84
2023/10/28 05:54:34;;;;;;;5.43;3.28;;;;;;;8.03;100.00;99310.88;4960800;28;20061;-85
2023/10/28 05:57:00;;;;;;;4.28;2.75;;;;;;;8.02;100.00;99319.94;4940228;28;20148;-84
2023/10/28 05:59:39;;;;;;;5.43;2.80;;;;;;;7.99;100.00;99319.56;4966144;28;20026;-84
2023/10/28 06:02:18;;;;;;;4.25;2.78;;;;;;;7.95;100.00;99316.47;4966159;28;20031;-85
2023/10/28 06:04:49;;;;;;;4.95;2.70;;;;;;;8.03;100.00;99323.47;4955829;28;20026;-84
2023/10/28 06:07:17;;;;;;;4.63;3.00;;;;;;;8.15;100.00;99326.22;4959409;28;20748;-84
2023/10/28 06:09:43;;;;;;;3.83;2.85;;;;;;;8.14;100.00;99333.47;4953831;28;20038;-84
2023/10/28 06:12:17;;;;;;;5.97;2.90;;;;;;;8.20;100.00;99323.72;4960556;28;20034;-84
2023/10/28 06:14:54;;;;;;;6.43;2.80;;;;;;;8.19;100.00;99328.28;4960655;28;20037;-84
2023/10/28 06:17:22;;;;;;;4.10;2.95;;;;;;;8.20;100.00;99321.03;4957836;28;20108;-84
2023/10/28 06:19:48;;;;;;;4.47;2.70;;;;;;;8.28;100.00;99328.81;4963842;28;20031;-84
2023/10/28 06:22:14;;;;;;;4.63;3.08;;;;;;;8.31;100.00;99316.81;4961220;28;20520;-87
2023/10/28 06:24:49;;;;;;;3.90;2.95;;;;;;;8.28;100.00;99326.13;4962539;28;20145;-84
2023/10/28 06:27:15;;;;;;;4.03;2.72;;;;;;;8.31;100.00;99328.34;4964438;28;20030;-86
2023/10/28 06:29:40;;;;;;;3.97;2.70;;;;;;;8.32;100.00;99335.34;4961064;28;20031;-84
2023/10/28 06:32:17;;;;;;;5.28;2.58;;;;;;;8.39;100.00;99339.84;4953322;28;20043;-83
2023/10/28 06:34:43;;;;;;;4.28;2.50;;;;;;;8.34;100.00;99335.16;4965609;28;20570;-84
2023/10/28 06:37:42;;;;;;;2.45;2.20;;;;;;;8.46;100.00;99336.06;4953505;28;20104;-85
2023/10/28 06:40:14;;;;;;;3.45;2.35;;;;;;;8.52;100.00;99339.75;4953107;28;20023;-83
2023/10/28 06:42:39;;;;;;;5.20;3.20;;;;;;;8.55;100.00;99343.88;4954078;28;20483;-83
2023/10/28 06:45:05;;;;;;;5.25;2.30;;;;;;;8.51;100.00;99338.13;4964530;28;20031;-80
2023/10/28 06:47:32;;;;;;;4.03;2.13;;;;;;;8.56;100.00;99350.88;4960158;28;20027;-78
2023/10/28 06:49:57;;;;;;;3.22;2.20;;;;;;;8.51;100.00;99345.34;4953384;28;20019;-78
2023/10/28 06:52:24;;;;;;;2.60;2.20;;;;;;;8.52;100.00;99355.03;4954970;28;20538;-80
2023/10/28 06:54:50;;;;;;;6.47;2.53;;;;;;;8.51;100.00;99354.22;4954562;28;20405;-77
2023/10/28 06:57:18;;;;;;;3.53;2.10;;;;;;;8.51;100.00;99351.53;4961955;28;20041;-81
2023/10/28 06:59:44;;;;;;;5.13;2.45;;;;;;;8.59;100.00;99359.31;5029985;23;20047;-82
2023/10/28 07:02:12;;;;;;;4.22;2.50;;;;;;;8.67;100.00;99350.16;4971334;28;20035;-82
2023/10/28 07:04:38;;;;;;;5.63;2.53;;;;;;;8.65;100.00;99353.03;4969771;28;20482;-82
2023/10/28 07:07:08;;;;;;;4.15;2.75;;;;;;;8.66;100.00;99351.19;4971541;28;20472;-83
2023/10/28 07:09:35;;;;;;;4.25;2.35;;;;;;;8.68;100.00;99359.00;4953615;28;20034;-80
2023/10/28 07:18:15;;;;;;;4.85;2.30;;;;;;;8.75;100.00;99365.13;5161089;23;20095;-81
2023/10/28 07:20:40;;;;;;;4.65;2.33;;;;;;;8.79;100.00;99364.47;4952979;28;20039;-81
2023/10/28 07:23:12;;;;;;;4.15;2.40;;;;;;;8.89;100.00;99366.63;4952383;28;20369;-80
2023/10/28 07:25:43;;;;;;;5.35;2.30;;;;;;;8.87;100.00;99352.63;4952760;28;20042;-81
2023/10/28 07:28:12;;;;;;;4.80;2.10;;;;;;;8.98;100.00;99369.03;4953269;28;20027;-81
2023/10/28 07:33:47;;;;;;;4.05;2.40;;;;;;;8.86;100.00;99375.13;4931962;28;20125;-81
2023/10/28 07:36:12;;;;;;;4.53;2.45;;;;;;;8.86;100.00;99375.13;4961561;28;20034;-80
2023/10/28 07:38:40;;;;;;;4.88;2.40;;;;;;;8.91;100.00;99369.13;4967844;28;20114;-82
2023/10/28 07:41:11;;;;;;;4.72;3.45;;;;;;;8.88;100.00;99373.03;4967796;28;20031;-82
2023/10/28 07:43:40;;;;;;;2.47;2.00;;;;;;;9.01;100.00;99368.56;4957737;28;20039;-82
2023/10/28 07:47:02;;;;;;;2.70;2.30;;;;;;;9.03;100.00;99378.06;4963826;28;20031;-80
2023/10/28 07:49:39;;;;;;;3.22;2.25;;;;;;;8.99;100.00;99368.81;4969218;28;20035;-80
2023/10/28 07:52:05;;;;;;;5.03;2.08;;;;;;;9.00;100.00;99378.50;4956465;28;20034;-80
2023/10/28 07:54:36;;;;;;;2.20;2.00;;;;;;;9.05;100.00;99380.50;4968028;28;20379;-81
2023/10/28 07:57:02;;;;;;;3.78;2.08;;;;;;;9.06;100.00;99376.78;4956503;28;20046;-80
2023/10/28 07:59:39;;;;;;;3.30;2.00;;;;;;;9.13;100.00;99388.28;4962348;28;20348;-81
2023/10/28 08:05:41;;;;;;;2.13;1.75;;;;;;;9.22;100.00;99381.56;4957651;28;20546;-80
2023/10/28 08:08:06;;;;;;;2.90;1.90;;;;;;;9.22;100.00;99389.59;4959578;28;20039;-80
2023/10/28 08:10:40;;;;;;;4.28;2.17;;;;;;;9.29;100.00;99391.41;4957646;28;20028;-80
2023/10/28 08:25:00;;;;;;;2.67;2.00;;;;;;;9.76;100.00;99390.81;4940938;26;20507;-81
2023/10/28 08:27:28;;;;;;;2.38;1.90;;;;;;;9.78;100.00;99397.59;4963874;28;20038;-81
2023/10/28 08:29:55;;;;;;;2.92;1.70;;;;;;;9.78;100.00;99404.84;4954255;28;20035;-81
2023/10/28 08:32:33;;;;;;;4.97;1.90;;;;;;;9.84;100.00;99404.75;4962996;28;20057;-80
2023/10/28 08:35:03;;;;;;;2.70;1.90;;;;;;;9.90;100.00;99400.34;4961939;28;20046;-82
2023/10/28 08:38:05;;;;;;;5.60;1.90;;;;;;;10.01;100.00;99404.91;4961898;28;20038;-81
2023/10/28 08:41:01;;;;;;;4.13;1.80;;;;;;;10.10;100.00;99401.91;4957994;28;20066;-82
2023/10/28 08:43:39;;;;;;;4.57;1.70;;;;;;;10.14;100.00;99409.28;4963059;28;20140;-79
2023/10/28 08:46:04;;;;;;;3.00;1.58;;;;;;;10.23;100.00;99401.72;5320592;23;20223;-80
2023/10/28 08:52:09;;;;;;;3.75;1.60;;;;;;;10.29;100.00;99413.41;4973864;28;20054;-80
2023/10/28 08:54:38;;;;;;;2.85;1.70;;;;;;;10.38;100.00;99408.50;4942234;28;20090;-80
2023/10/28 08:57:15;;;;;;;2.72;1.77;;;;;;;10.46;100.00;99421.69;4956418;28;20387;-80
2023/10/28 08:59:59;;;;;;;3.55;1.80;;;;;;;10.36;100.00;99426.75;4955207;28;20029;-80
2023/10/28 09:04:59;;;;;;;3.33;1.70;;;;;;;10.24;100.00;99422.19;5532011;23;20460;-79
2023/10/28 09:07:27;;;;;;;3.55;1.70;;;;;;;10.20;100.00;99422.88;4969426;28;20070;-79
2023/10/28 09:10:03;;;;;;;6.03;1.75;;;;;;;10.23;100.00;99422.41;4938494;28;20400;-80
2023/10/28 09:12:29;;;;;;;2.92;1.60;;;;;;;10.39;100.00;99437.09;4955704;28;20392;-79
2023/10/28 09:14:54;;;;;;;3.25;1.98;;;;;;;10.44;100.00;99427.28;4964704;28;20029;-79
2023/10/28 09:17:26;;;;;;;3.65;1.60;;;;;;;10.61;100.00;99442.72;4978200;28;20123;-79
2023/10/28 09:19:52;;;;;;;2.47;1.60;;;;;;;10.67;100.00;99441.81;4970281;28;20027;-79
2023/10/28 09:22:17;;;;;;;2.83;1.60;;;;;;;10.77;100.00;99438.53;4963673;28;20046;-79
2023/10/28 09:24:46;;;;;;;2.47;1.42;;;;;;;10.77;100.00;99433.97;4962747;28;20121;-78
2023/10/28 09:27:12;;;;;;;3.95;1.40;;;;;;;10.69;100.00;99426.25;4954901;28;20023;-79
2023/10/28 09:29:38;;;;;;;2.97;1.50;;;;;;;10.76;100.00;99437.75;4954396;28;20118;-80
2023/10/28 09:32:08;;;;;;;2.60;1.40;;;;;;;10.88;100.00;99447.69;4961268;28;20039;-80
2023/10/28 09:34:41;;;;;;;2.15;1.40;;;;;;;10.97;100.00;99442.78;4956006;28;20527;-80
2023/10/28 09:37:07;;;;;;;4.07;1.80;;;;;;;11.00;100.00;99443.13;4954405;28;20159;-79
2023/10/28 09:39:33;;;;;;;4.82;1.50;;;;;;;10.99;100.00;99440.66;4953809;28;20461;-80
2023/10/28 09:41:59;;;;;;;3.08;1.60;;;;;;;10.96;100.00;99441.13;4954744;28;20035;-80
2023/10/28 09:47:04;;;;;;;3.85;1.30;;;;;;;10.94;100.00;99451.31;5210163;23;20151;-79
2023/10/28 09:49:35;;;;;;;1.90;1.27;;;;;;;10.95;100.00;99455.66;4932699;29;20035;-80
2023/10/28 09:52:05;;;;;;;3.13;1.33;;;;;;;10.94;100.00;99448.63;4916050;29;20031;-79
2023/10/28 09:54:35;;;;;;;5.95;1.55;;;;;;;10.92;100.00;99455.06;4914967;29;20036;-80
2023/10/28 09:57:03;;;;;;;5.40;1.60;;;;;;;10.92;100.00;99438.09;4913522;29;20055;-79
2023/10/28 09:59:34;;;;;;;2.58;1.30;;;;;;;10.98;100.00;99447.91;4924932;29;20226;-79
2023/10/28 10:02:01;;;;;;;1.77;1.13;;;;;;;10.96;100.00;99452.72;4914051;29;20596;-79
2023/10/28 10:07:02;;;;;;;3.90;1.30;;;;;;;10.84;100.00;99443.81;5066994;23;20066;-81
2023/10/28 10:16:47;;;;;;;3.72;1.25;;;;;;;11.02;100.00;99441.00;5326804;23;20089;-81
2023/10/28 10:19:17;;;;;;;1.65;1.27;;;;;;;11.15;100.00;99444.50;4942490;29;20072;-81
2023/10/28 10:21:51;;;;;;;2.65;1.20;;;;;;;11.25;100.00;99446.59;4927638;29;20559;-80
2023/10/28 10:24:18;;;;;;;3.67;1.38;;;;;;;11.45;100.00;99440.84;4942494;28;20050;-80
2023/10/28 10:30:06;;;;;;;2.47;1.05;;;;;;;12.17;100.00;99450.38;4947729;29;20431;-80
2023/10/28 10:32:48;;;;;;;2.85;1.25;;;;;;;12.37;100.00;99443.66;4954302;28;20085;-80
2023/10/28 10:35:36;;;;;;;2.83;1.30;;;;;;;12.41;100.00;99440.25;4963299;28;20050;-81
2023/10/28 10:41:48;;;;;;;3.30;1.23;;;;;;;12.67;100.00;99445.25;4956173;28;20054;-80
2023/10/28 10:44:38;;;;;;;3.05;1.60;;;;;;;13.08;100.00;99436.94;4954147;28;20031;-79
2023/10/28 10:47:05;;;;;;;3.33;1.30;;;;;;;13.23;100.00;99445.25;4955263;28;20033;-78
2023/10/28 10:52:38;;;;;;;2.22;1.30;;;;;;;13.19;97.99;99433.31;4937432;23;20083;-79
2023/10/28 10:55:11;;;;;;;4.68;2.20;;;;;;;13.32;98.66;99449.19;4931592;29;20036;-78
2023/10/28 10:57:39;;;;;;;4.28;1.48;;;;;;;13.27;98.37;99440.16;4934355;29;20051;-78
2023/10/28 11:00:14;;;;;;;4.00;1.45;;;;;;;13.49;96.60;99438.34;4935749;29;20027;-79
2023/10/28 11:02:45;;;;;;;4.03;2.00;;;;;;;13.73;95.75;99438.09;4930113;29;20106;-77
2023/10/28 11:05:12;;;;;;;4.70;2.40;;;;;;;13.88;94.68;99439.31;4944357;29;20036;-77
2023/10/28 11:07:40;;;;;;;2.70;1.35;;;;;;;13.92;91.18;99435.06;4926945;29;20042;-79
2023/10/28 11:10:08;;;;;;;4.43;2.00;;;;;;;13.86;90.60;99427.94;4932474;29;20413;-78
2023/10/28 11:12:34;;;;;;;2.50;1.20;;;;;;;13.70;94.06;99422.38;4929005;29;20031;-78
2023/10/28 11:14:59;;;;;;;3.72;1.50;;;;;;;13.87;91.12;99424.16;4928825;29;20038;-80
2023/10/28 11:17:25;;;;;;;4.50;1.30;;;;;;;13.96;89.92;99422.63;4932110;29;20067;-78
2023/10/28 11:19:50;;;;;;;4.82;1.40;;;;;;;13.83;89.69;99420.31;4909183;29;20046;-78
2023/10/28 11:22:16;;;;;;;2.60;1.10;;;;;;;13.95;89.97;99418.28;4933507;29;20027;-77
2023/10/28 11:24:41;;;;;;;4.30;1.55;;;;;;;14.60;90.15;99417.50;4935509;29;20027;-78
2023/10/28 11:27:07;;;;;;;1.67;1.30;;;;;;;15.39;85.78;99415.03;4936950;29;20024;-77
2023/10/28 11:29:35;;;;;;;4.40;1.33;;;;;;;16.31;77.63;99417.22;4930975;29;20507;-77
2023/10/28 11:32:06;;;;;;;3.58;1.42;;;;;;;16.65;75.47;99427.53;4931829;29;20484;-78
2023/10/28 11:34:38;;;;;;;2.70;1.30;;;;;;;16.49;76.33;99426.72;4924127;29;20027;-77
2023/10/28 11:37:07;;;;;;;3.33;1.50;;;;;;;16.85;73.92;99425.06;4937059;29;20036;-77
2023/10/28 11:39:34;;;;;;;3.08;1.40;;;;;;;16.15;75.35;99427.22;4932244;29;20507;-78
2023/10/28 11:42:20;;;;;;;3.08;1.38;;;;;;;15.31;78.72;99422.59;4932326;29;20133;-79
2023/10/28 11:44:49;;;;;;;2.77;1.13;;;;;;;14.53;82.32;99415.03;4931285;29;20066;-79
2023/10/28 11:47:17;;;;;;;3.63;1.38;;;;;;;14.36;84.64;99423.28;4934619;29;20036;-79
2023/10/28 11:49:43;;;;;;;4.60;1.63;;;;;;;14.17;87.45;99409.31;4931837;29;20055;-79
2023/10/28 11:52:11;;;;;;;2.97;1.63;;;;;;;14.05;89.33;99401.34;4937964;29;20073;-79
2023/10/28 11:54:36;;;;;;;2.55;1.40;;;;;;;14.01;87.27;99406.44;4934501;29;20047;-79
2023/10/28 11:57:02;;;;;;;4.40;1.70;;;;;;;13.87;89.04;99413.34;4933985;29;20508;-80
2023/10/28 12:06:42;;;;;;;3.30;1.30;;;;;;;13.49;87.56;99415.91;4935179;29;20424;-79
2023/10/28 12:15:54;;;;;;;4.05;1.20;;;;;;;13.17;89.71;99417.34;4929847;29;20147;-79
2023/10/28 12:18:19;;;;;;;6.65;1.58;;;;;;;13.10;89.49;99424.00;4933652;29;20508;-77
2023/10/28 12:20:44;;;;;;;3.20;1.30;;;;;;;13.04;89.94;99434.75;4930394;29;20233;-78
2023/10/28 12:26:31;;;;;;;3.83;1.50;;;;;;;13.45;87.62;99426.38;4937018;29;20054;-77
2023/10/28 12:28:57;;;;;;;3.13;1.40;;;;;;;14.13;85.22;99429.81;4934972;29;20035;-76
2023/10/28 12:34:44;;;;;;;2.42;1.30;;;;;;;14.19;83.84;99437.75;4933153;29;20051;-77
2023/10/28 12:37:12;;;;;;;6.07;1.52;;;;;;;14.07;83.04;99432.50;4934547;29;20032;-77
2023/10/28 12:39:38;;;;;;;4.13;1.50;;;;;;;13.80;83.72;99425.16;4940754;29;20027;-77
2023/10/28 12:42:03;;;;;;;4.35;1.42;;;;;;;13.62;84.16;99430.91;4934534;29;20042;-77
2023/10/28 12:44:30;;;;;;;3.58;1.50;;;;;;;13.54;84.92;99434.88;4928037;29;20559;-76
2023/10/28 12:46:55;;;;;;;4.85;1.40;;;;;;;13.47;85.37;99429.66;4933828;29;20114;-76
2023/10/28 12:49:22;;;;;;;4.93;1.40;;;;;;;13.38;86.17;99441.13;4935835;29;20584;-77
2023/10/28 12:51:47;;;;;;;4.55;1.50;;;;;;;13.33;86.27;99437.28;4926851;29;20126;-77